Time;durP1;ratioP1;P1;durP2;ratioP2;P2;SDS_P1;SDS_P2;PMS_P1;PMS_P2;Temp;Humidity;BMP_temperature;BMP_pressure;BME280_temperature;BME280_humidity;BME280_pressure;Samples;Min_cycle;Max_cycle;Signal;HPM_P1;HPM_P2
2023/10/31 00:00:32;;;;;;;17.40;9.70;;;;;;;14.99;100.00;98715.71;111038;1258;23033;-79
2023/10/31 00:03:44;;;;;;;19.10;10.40;;;;;;;15.06;100.00;98719.96;110863;1261;22511;-79
2023/10/31 00:06:37;;;;;;;14.20;9.00;;;;;;;15.03;100.00;98700.89;110883;1255;21975;-79
2023/10/31 00:09:42;;;;;;;15.80;10.10;;;;;;;15.18;100.00;98711.73;110361;1266;21965;-80
2023/10/31 00:12:40;;;;;;;22.90;13.10;;;;;;;15.25;100.00;98707.02;105892;1269;5498316;-80
2023/10/31 00:15:51;;;;;;;22.60;13.40;;;;;;;15.29;100.00;98698.91;109547;1273;23051;-80
2023/10/31 00:18:32;;;;;;;17.30;9.80;;;;;;;15.37;100.00;98695.78;109079;1278;22303;-79
2023/10/31 00:21:57;;;;;;;16.40;9.60;;;;;;;15.44;100.00;98693.98;109054;1276;21999;-81
2023/10/31 00:25:20;;;;;;;19.20;11.10;;;;;;;15.50;100.00;98685.08;108990;1269;21981;-80
2023/10/31 00:28:54;;;;;;;;;;;;;;;;;;;;;
2023/10/31 00:32:09;;;;;;;13.30;7.30;;;;;;;15.59;100.00;98670.13;109200;1276;21990;-79
2023/10/31 00:35:16;;;;;;;17.40;8.60;;;;;;;15.62;100.00;98663.20;109953;1266;22008;-80
2023/10/31 00:38:22;;;;;;;15.30;8.60;;;;;;;15.66;100.00;98662.65;110111;1269;22424;-80
2023/10/31 00:41:57;;;;;;;11.70;8.20;;;;;;;15.61;100.00;98646.79;109268;1275;22000;-79
2023/10/31 00:44:59;;;;;;;18.70;8.60;;;;;;;15.70;100.00;98652.50;109148;1273;22346;-79
2023/10/31 00:47:49;;;;;;;19.10;10.70;;;;;;;15.72;100.00;98642.85;109173;1275;23641;-79
2023/10/31 00:50:49;;;;;;;19.70;11.40;;;;;;;15.75;100.00;98636.69;109172;1276;21955;-80
2023/10/31 00:53:35;;;;;;;13.60;8.60;;;;;;;15.78;100.00;98638.36;109341;1274;22738;-80
2023/10/31 00:56:51;;;;;;;14.30;9.00;;;;;;;15.71;100.00;98628.76;110179;1265;21981;-79
2023/10/31 01:00:09;;;;;;;19.10;12.20;;;;;;;15.77;100.00;98632.63;110284;1260;23032;-81
2023/10/31 01:03:19;;;;;;;12.30;8.20;;;;;;;15.75;100.00;98625.79;110041;1267;23594;-80
2023/10/31 01:06:17;;;;;;;16.80;9.80;;;;;;;15.76;100.00;98621.66;110282;1266;23693;-80
2023/10/31 01:09:08;;;;;;;13.00;8.80;;;;;;;15.78;100.00;98619.54;110241;1267;23601;-79
2023/10/31 01:11:46;;;;;;;16.60;8.80;;;;;;;15.75;100.00;98607.89;110051;1267;22498;-79
2023/10/31 01:14:25;;;;;;;17.20;10.60;;;;;;;15.66;100.00;98585.20;110003;1267;24189;-79
2023/10/31 01:17:21;;;;;;;14.00;8.00;;;;;;;15.76;100.00;98596.06;110253;1261;23028;-80
2023/10/31 01:19:58;;;;;;;14.80;8.60;;;;;;;15.83;100.00;98599.91;110704;1261;23141;-79
2023/10/31 01:22:34;;;;;;;11.90;7.50;;;;;;;15.83;100.00;98597.23;110743;1261;22722;-79
2023/10/31 01:25:41;;;;;;;14.60;9.40;;;;;;;15.82;100.00;98591.88;110643;1264;23033;-79
2023/10/31 01:28:40;;;;;;;17.10;9.60;;;;;;;15.79;100.00;98585.11;110186;1264;24319;-79
2023/10/31 01:31:23;;;;;;;13.00;9.20;;;;;;;15.78;100.00;98578.52;110587;1264;21975;-79
2023/10/31 01:34:09;;;;;;;13.10;8.20;;;;;;;15.77;100.00;98574.76;110135;1267;23707;-78
2023/10/31 01:36:46;;;;;;;18.10;10.40;;;;;;;15.77;100.00;98566.39;110241;1267;22275;-80
2023/10/31 01:39:39;;;;;;;15.50;9.80;;;;;;;15.75;100.00;98555.14;110109;1267;21994;-79
2023/10/31 01:42:38;;;;;;;15.30;9.00;;;;;;;15.71;100.00;98550.95;110030;1267;24582;-79
2023/10/31 01:45:15;;;;;;;15.20;8.50;;;;;;;15.68;100.00;98542.19;110342;1266;23705;-81
2023/10/31 01:48:02;;;;;;;14.00;8.60;;;;;;;15.66;100.00;98532.91;109544;1272;22373;-79
2023/10/31 01:50:54;;;;;;;13.00;9.30;;;;;;;15.63;100.00;98526.65;109463;1272;21981;-79
2023/10/31 01:53:49;;;;;;;10.60;7.50;;;;;;;15.50;100.00;98501.05;109784;1270;24453;-79
2023/10/31 01:57:02;;;;;;;14.20;8.70;;;;;;;15.56;100.00;98513.79;110127;1267;22414;-80
2023/10/31 01:59:40;;;;;;;11.50;7.90;;;;;;;15.54;100.00;98515.19;110309;1265;21978;-79
2023/10/31 02:02:15;;;;;;;14.40;8.70;;;;;;;15.52;100.00;98507.98;110314;1261;23028;-79
2023/10/31 02:04:53;;;;;;;13.90;8.40;;;;;;;15.53;100.00;98504.75;110375;1265;23797;-80
2023/10/31 02:07:57;;;;;;;13.20;8.90;;;;;;;15.44;100.00;98483.11;110162;1266;21974;-79
2023/10/31 02:10:35;;;;;;;14.10;9.30;;;;;;;15.51;100.00;98494.59;110181;1266;21993;-79
2023/10/31 02:13:25;;;;;;;16.20;8.10;;;;;;;15.44;100.00;98482.75;109997;1267;23746;-78
2023/10/31 02:16:03;;;;;;;13.90;7.30;;;;;;;15.43;100.00;98479.20;110396;1261;22127;-82
2023/10/31 02:18:47;;;;;;;11.90;7.90;;;;;;;15.42;100.00;98475.11;110371;1267;21981;-82
2023/10/31 02:21:23;;;;;;;15.10;8.60;;;;;;;15.47;100.00;98480.97;109695;1271;21993;-81
2023/10/31 02:24:02;;;;;;;10.60;7.60;;;;;;;15.46;100.00;98474.73;109924;1271;22047;-79
2023/10/31 02:26:38;;;;;;;16.90;8.50;;;;;;;15.39;100.00;98455.35;109081;1275;21983;-79
2023/10/31 02:29:14;;;;;;;14.50;8.60;;;;;;;15.34;100.00;98445.46;108980;1279;22114;-80
2023/10/31 02:31:59;;;;;;;17.50;9.10;;;;;;;15.33;100.00;98442.52;109121;1270;22013;-79
2023/10/31 02:35:02;;;;;;;14.60;8.40;;;;;;;15.25;100.00;98431.49;109918;1270;22400;-79
2023/10/31 02:37:38;;;;;;;14.30;8.30;;;;;;;15.26;100.00;98439.98;109181;1276;22617;-78
2023/10/31 02:40:19;;;;;;;23.20;9.60;;;;;;;15.34;100.00;98448.38;109363;1273;21998;-80
2023/10/31 02:43:18;;;;;;;11.20;8.10;;;;;;;15.35;100.00;98443.63;109391;1273;22444;-79
2023/10/31 02:45:58;;;;;;;13.60;8.60;;;;;;;15.33;100.00;98439.55;109883;1270;22035;-81
2023/10/31 02:48:31;;;;;;;16.10;8.80;;;;;;;15.33;100.00;98444.13;110737;1263;22003;-79
2023/10/31 02:51:29;;;;;;;15.30;9.10;;;;;;;15.30;100.00;98447.02;110719;1263;23021;-80
2023/10/31 02:54:11;;;;;;;17.60;10.40;;;;;;;15.29;100.00;98435.92;110688;1258;22725;-78
2023/10/31 02:57:12;;;;;;;14.80;9.30;;;;;;;15.28;100.00;98425.70;111050;1257;22989;-79
2023/10/31 02:59:47;;;;;;;15.30;9.40;;;;;;;15.25;100.00;98416.77;110607;1264;21993;-80
2023/10/31 03:02:39;;;;;;;11.40;9.30;;;;;;;15.23;100.00;98413.12;110615;1264;21969;-80
2023/10/31 03:05:23;;;;;;;20.30;9.60;;;;;;;15.20;100.00;98411.23;110649;1263;21974;-79
2023/10/31 03:08:13;;;;;;;14.90;8.40;;;;;;;15.18;100.00;98407.77;110408;1267;21977;-79
2023/10/31 03:11:26;;;;;;;14.30;9.40;;;;;;;15.00;100.00;98382.33;110335;1266;22032;-79
2023/10/31 03:14:18;;;;;;;14.00;8.60;;;;;;;15.13;100.00;98389.48;110285;1267;21980;-80
2023/10/31 03:17:15;;;;;;;14.90;9.10;;;;;;;15.08;100.00;98373.94;110105;1262;21985;-80
2023/10/31 03:20:02;;;;;;;12.90;8.50;;;;;;;15.01;100.00;98366.31;110068;1268;22952;-79
2023/10/31 03:22:45;;;;;;;18.30;8.80;;;;;;;15.04;100.00;98370.42;110189;1268;22937;-80
2023/10/31 03:25:24;;;;;;;15.40;8.50;;;;;;;15.08;100.00;98369.96;109881;1264;23093;-79
2023/10/31 03:28:07;;;;;;;15.10;9.40;;;;;;;14.97;100.00;98349.93;110460;1261;23125;-79
2023/10/31 03:30:49;;;;;;;13.00;8.30;;;;;;;15.02;100.00;98362.02;110472;1257;21939;-78
2023/10/31 03:33:35;;;;;;;15.70;8.90;;;;;;;15.00;100.00;98361.55;110544;1261;22017;-79
2023/10/31 03:36:11;;;;;;;16.60;9.70;;;;;;;14.99;100.00;98360.02;110372;1263;21988;-79
2023/10/31 03:39:20;;;;;;;15.30;10.20;;;;;;;14.96;100.00;98354.39;110953;1258;22035;-80
2023/10/31 03:42:06;;;;;;;12.80;8.20;;;;;;;14.88;100.00;98341.70;111035;1258;22001;-80
2023/10/31 03:44:41;;;;;;;13.00;8.80;;;;;;;14.94;100.00;98345.89;110716;1258;23586;-79
2023/10/31 03:47:39;;;;;;;15.70;8.60;;;;;;;14.94;100.00;98343.45;110842;1258;21975;-78
2023/10/31 03:50:27;;;;;;;21.20;10.00;;;;;;;14.92;100.00;98333.30;110955;1258;23704;-79
2023/10/31 03:53:28;;;;;;;15.70;9.30;;;;;;;14.92;100.00;98334.58;110699;1263;22037;-80
2023/10/31 03:56:12;;;;;;;18.30;9.50;;;;;;;14.90;100.00;98325.99;110515;1263;21970;-81
2023/10/31 03:59:04;;;;;;;;;;;;;;;;;;;;;
2023/10/31 04:01:44;;;;;;;16.10;8.60;;;;;;;14.88;100.00;98329.14;110367;1262;23010;-79
2023/10/31 04:04:55;;;;;;;16.00;8.40;;;;;;;14.87;100.00;98321.35;110356;1262;22193;-77
2023/10/31 04:07:26;;;;;;;13.80;8.00;;;;;;;14.85;100.00;98315.56;109717;1268;21989;-77
2023/10/31 04:10:09;;;;;;;12.50;8.00;;;;;;;14.87;100.00;98310.84;109743;1268;21989;-78
2023/10/31 04:12:58;;;;;;;15.30;8.40;;;;;;;14.89;100.00;98314.18;110257;1264;22181;-79
2023/10/31 04:15:34;;;;;;;11.60;7.60;;;;;;;14.87;100.00;98310.45;110367;1264;22084;-79
2023/10/31 04:18:20;;;;;;;12.50;8.30;;;;;;;14.88;100.00;98309.68;110364;1264;22238;-80
2023/10/31 04:20:50;;;;;;;33.70;26.90;;;;;;;14.92;100.00;98304.96;110521;1264;23598;-80
2023/10/31 04:23:29;;;;;;;11.00;7.40;;;;;;;14.87;100.00;98281.23;109600;1270;22142;-80
2023/10/31 04:26:12;;;;;;;13.90;7.00;;;;;;;15.01;100.00;98291.34;109794;1270;22037;-78
2023/10/31 04:28:53;;;;;;;11.60;6.40;;;;;;;15.06;100.00;98286.40;109718;1270;21998;-81
2023/10/31 04:31:30;;;;;;;11.70;6.30;;;;;;;15.09;100.00;98280.36;109630;1270;23631;-79
2023/10/31 04:34:15;;;;;;;;;;;;;;;15.11;100.00;98270.48;109709;1270;22040;-79
2023/10/31 04:36:50;;;;;;;12.80;6.30;;;;;;;14.97;100.00;98255.13;109616;1267;22289;-79
2023/10/31 04:39:24;;;;;;;10.40;6.20;;;;;;;15.09;100.00;98264.58;109713;1270;22155;-79
2023/10/31 04:41:56;;;;;;;10.10;6.70;;;;;;;15.14;100.00;98264.95;109886;1270;21987;-79
2023/10/31 04:44:27;;;;;;;15.00;7.10;;;;;;;15.17;100.00;98263.52;109911;1264;23640;-79
2023/10/31 04:47:23;;;;;;;11.10;6.70;;;;;;;15.19;100.00;98259.85;110202;1261;21978;-78
2023/10/31 04:49:59;;;;;;;11.60;7.00;;;;;;;15.22;100.00;98260.09;110384;1263;23589;-80
2023/10/31 04:52:30;;;;;;;9.10;6.60;;;;;;;15.18;100.00;98241.48;110301;1263;22432;-79
2023/10/31 04:55:14;;;;;;;12.30;7.40;;;;;;;15.29;100.00;98245.83;110544;1263;21982;-79
2023/10/31 04:57:50;;;;;;;11.10;7.20;;;;;;;15.30;100.00;98245.19;110513;1263;23697;-78
2023/10/31 05:00:25;;;;;;;12.10;7.50;;;;;;;15.31;100.00;98247.57;110312;1256;23691;-79
2023/10/31 05:03:08;;;;;;;11.20;7.50;;;;;;;15.33;100.00;98244.55;110648;1262;22324;-80
2023/10/31 05:05:53;;;;;;;14.00;7.30;;;;;;;15.37;100.00;98245.10;110770;1263;22634;-78
2023/10/31 05:08:38;;;;;;;13.40;9.10;;;;;;;15.39;100.00;98255.00;110432;1263;22468;-80
2023/10/31 05:11:09;;;;;;;12.20;8.60;;;;;;;15.41;100.00;98258.52;110726;1260;23688;-80
2023/10/31 05:13:44;;;;;;;11.10;8.40;;;;;;;15.42;100.00;98254.96;111186;1259;22859;-80
2023/10/31 05:16:17;;;;;;;12.10;8.60;;;;;;;15.44;100.00;98260.16;110996;1257;21980;-80
2023/10/31 05:18:55;;;;;;;13.90;9.00;;;;;;;15.46;100.00;98262.27;110809;1260;22766;-81
2023/10/31 05:21:26;;;;;;;12.60;8.00;;;;;;;15.48;100.00;98259.48;111078;1259;23909;-83
2023/10/31 05:24:00;;;;;;;11.40;7.80;;;;;;;15.48;100.00;98256.31;111034;1260;21968;-80
2023/10/31 05:26:34;;;;;;;12.60;7.50;;;;;;;15.42;100.00;98241.05;110775;1260;22819;-81
2023/10/31 05:29:09;;;;;;;13.50;7.40;;;;;;;15.51;100.00;98252.20;111104;1257;21987;-80
2023/10/31 05:31:43;;;;;;;14.50;7.70;;;;;;;15.50;100.00;98251.59;111134;1257;23717;-81
2023/10/31 05:34:14;;;;;;;11.10;8.20;;;;;;;15.50;100.00;98248.27;111316;1257;21922;-81
2023/10/31 05:36:48;;;;;;;14.80;7.40;;;;;;;15.50;100.00;98253.30;110935;1257;23735;-81
2023/10/31 05:39:28;;;;;;;17.80;8.30;;;;;;;15.51;100.00;98253.10;110969;1257;21986;-81
2023/10/31 05:42:06;;;;;;;15.60;7.80;;;;;;;15.50;100.00;98258.27;111165;1257;23700;-80
2023/10/31 05:44:58;;;;;;;;;;;;;;;;;;;;;
2023/10/31 05:47:54;;;;;;;11.70;7.40;;;;;;;15.48;100.00;98267.59;110950;1261;21966;-80
2023/10/31 05:50:42;;;;;;;15.10;9.00;;;;;;;15.40;100.00;98254.77;110943;1260;21960;-79
2023/10/31 05:53:21;;;;;;;13.00;7.20;;;;;;;15.50;100.00;98266.17;110976;1260;22333;-81
2023/10/31 05:56:23;;;;;;;20.30;7.50;;;;;;;15.50;100.00;98268.93;110877;1261;21968;-79
2023/10/31 05:59:07;;;;;;;12.50;6.30;;;;;;;15.51;100.00;98263.23;110872;1261;22142;-80
2023/10/31 06:01:57;;;;;;;10.60;6.80;;;;;;;15.49;100.00;98256.71;110532;1265;21982;-81
2023/10/31 06:04:41;;;;;;;10.60;6.30;;;;;;;15.47;100.00;98251.13;109775;1272;23599;-82
2023/10/31 06:08:09;;;;;;;10.90;6.30;;;;;;;15.45;100.00;98243.06;109444;1272;23084;-83
2023/10/31 06:11:16;;;;;;;10.40;6.60;;;;;;;15.42;100.00;98237.77;109675;1272;23635;-81
2023/10/31 06:14:05;;;;;;;11.00;5.90;;;;;;;15.42;100.00;98237.77;109514;1272;21977;-82
2023/10/31 06:16:43;;;;;;;9.10;5.50;;;;;;;15.43;100.00;98239.41;109074;1279;22006;-83
2023/10/31 06:19:27;;;;;;;9.40;6.10;;;;;;;15.46;100.00;98241.30;109142;1275;23055;-82
2023/10/31 06:22:19;;;;;;;9.20;5.30;;;;;;;15.47;100.00;98239.77;109560;1269;21984;-80
2023/10/31 06:24:58;;;;;;;13.80;4.80;;;;;;;15.47;100.00;98241.99;110287;1268;22103;-81
2023/10/31 06:27:37;;;;;;;9.10;5.00;;;;;;;15.50;100.00;98246.86;110056;1269;23050;-78
2023/10/31 06:30:10;;;;;;;10.50;5.60;;;;;;;15.53;100.00;98252.16;109903;1267;22964;-78
2023/10/31 06:33:00;;;;;;;9.90;5.00;;;;;;;15.57;100.00;98260.19;110278;1264;21976;-79
2023/10/31 06:35:32;;;;;;;17.60;5.50;;;;;;;15.60;100.00;98261.67;111031;1257;23734;-79
2023/10/31 06:38:07;;;;;;;11.00;4.90;;;;;;;15.65;100.00;98260.95;111211;1257;21976;-81
2023/10/31 06:40:40;;;;;;;6.80;4.80;;;;;;;15.69;100.00;98264.90;111194;1257;22975;-80
2023/10/31 06:43:21;;;;;;;12.70;4.50;;;;;;;15.72;100.00;98275.54;111175;1257;23020;-80
2023/10/31 06:45:56;;;;;;;7.50;4.40;;;;;;;15.75;100.00;98279.30;111162;1257;22954;-81
2023/10/31 06:48:30;;;;;;;9.50;4.80;;;;;;;15.80;100.00;98282.52;111220;1253;22258;-80
2023/10/31 06:51:17;;;;;;;8.90;4.30;;;;;;;15.83;100.00;98277.99;111105;1259;21977;-84
2023/10/31 06:53:51;;;;;;;7.80;5.20;;;;;;;15.73;100.00;98261.04;110786;1262;22163;-84
2023/10/31 06:56:38;;;;;;;11.80;6.80;;;;;;;15.85;100.00;98275.77;110728;1262;24067;-82
2023/10/31 06:59:18;;;;;;;14.00;6.50;;;;;;;15.87;100.00;98278.40;110252;1267;21970;-83
2023/10/31 07:01:55;;;;;;;11.50;6.50;;;;;;;15.89;100.00;98283.05;109743;1271;21987;-84
2023/10/31 07:04:32;;;;;;;8.90;5.10;;;;;;;15.92;100.00;98286.73;109329;1276;22484;-81
2023/10/31 07:07:06;;;;;;;13.30;6.50;;;;;;;15.93;100.00;98285.51;109075;1276;21763;-85
2023/10/31 07:09:47;;;;;;;9.50;6.40;;;;;;;15.94;100.00;98284.54;109369;1276;22085;-84
2023/10/31 07:12:17;;;;;;;14.10;8.40;;;;;;;15.96;100.00;98286.63;109274;1276;21990;-77
2023/10/31 07:14:47;;;;;;;8.50;6.00;;;;;;;15.96;100.00;98290.11;109038;1268;22011;-78
2023/10/31 07:17:20;;;;;;;11.90;7.10;;;;;;;15.98;100.00;98296.83;109326;1271;22178;-76
2023/10/31 07:19:52;;;;;;;10.30;6.70;;;;;;;15.99;100.00;98298.52;109593;1267;21986;-78
2023/10/31 07:22:24;;;;;;;9.80;6.10;;;;;;;15.99;100.00;98302.52;110267;1260;21981;-77
2023/10/31 07:24:54;;;;;;;14.80;5.10;;;;;;;16.03;100.00;98304.77;110763;1257;21983;-78
2023/10/31 07:27:27;;;;;;;14.80;5.60;;;;;;;16.05;100.00;98306.50;111104;1257;21991;-80
2023/10/31 07:29:56;;;;;;;13.10;5.60;;;;;;;16.08;100.00;98308.50;111132;1257;22042;-76
2023/10/31 07:32:31;;;;;;;9.30;4.80;;;;;;;16.08;100.00;98309.20;111190;1257;23029;-77
2023/10/31 07:35:01;;;;;;;13.90;7.10;;;;;;;16.07;100.00;98313.95;111017;1257;24379;-80
2023/10/31 07:37:31;;;;;;;12.00;5.80;;;;;;;16.03;100.00;98318.82;111230;1257;22447;-81
2023/10/31 07:40:13;;;;;;;10.40;6.00;;;;;;;16.01;100.00;98317.61;111367;1257;22909;-85
2023/10/31 07:42:47;;;;;;;;;;;;;;;16.00;100.00;98318.23;110711;1263;21972;-86
2023/10/31 07:45:17;;;;;;;9.20;4.50;;;;;;;15.91;100.00;98318.86;111045;1263;21986;-86
2023/10/31 07:47:50;;;;;;;12.60;5.80;;;;;;;15.92;100.00;98320.02;111058;1263;23738;-86
2023/10/31 07:50:25;;;;;;;10.20;4.60;;;;;;;15.87;100.00;98316.74;110845;1263;21970;-85
2023/10/31 07:52:59;;;;;;;11.30;5.10;;;;;;;15.95;100.00;98330.20;111053;1263;21924;-86
2023/10/31 07:55:37;;;;;;;8.40;4.40;;;;;;;15.93;100.00;98333.00;111026;1263;22158;-85
2023/10/31 07:58:21;;;;;;;8.50;4.80;;;;;;;15.94;100.00;98332.45;110898;1263;22441;-86
2023/10/31 08:00:51;;;;;;;9.20;4.40;;;;;;;15.88;100.00;98330.92;111109;1256;21964;-86
2023/10/31 08:03:25;;;;;;;8.00;4.60;;;;;;;15.87;100.00;98331.90;111195;1244;21978;-87
2023/10/31 08:06:00;;;;;;;9.40;4.60;;;;;;;15.86;100.00;98336.33;111587;1249;21982;-86
2023/10/31 08:08:33;;;;;;;9.20;4.90;;;;;;;15.83;100.00;98339.55;111385;1256;22034;-85
2023/10/31 08:11:15;;;;;;;7.00;4.90;;;;;;;15.81;100.00;98346.12;111379;1256;21973;-86
2023/10/31 08:13:48;;;;;;;10.10;5.90;;;;;;;15.80;100.00;98351.58;111235;1256;22963;-85
2023/10/31 08:16:19;;;;;;;9.10;7.70;;;;;;;15.80;100.00;98351.96;111040;1260;21963;-86
2023/10/31 08:18:50;;;;;;;15.60;9.90;;;;;;;15.76;100.00;98350.70;110906;1253;23714;-87
2023/10/31 08:21:24;;;;;;;13.70;9.10;;;;;;;15.76;100.00;98349.67;110293;1267;22001;-85
2023/10/31 08:23:58;;;;;;;9.10;4.90;;;;;;;15.74;100.00;98360.17;110441;1267;21983;-86
2023/10/31 08:26:34;;;;;;;8.00;4.90;;;;;;;15.71;100.00;98371.69;110448;1267;22000;-85
2023/10/31 08:29:07;;;;;;;10.40;6.50;;;;;;;15.70;100.00;98382.86;110203;1266;21994;-87
2023/10/31 08:31:45;;;;;;;7.00;4.60;;;;;;;15.68;100.00;98390.91;110416;1267;24368;-86
2023/10/31 08:34:21;;;;;;;9.60;4.70;;;;;;;15.68;100.00;98397.06;109977;1267;21975;-86
2023/10/31 08:37:00;;;;;;;10.70;5.80;;;;;;;15.68;100.00;98401.77;110476;1266;22484;-85
2023/10/31 08:39:34;;;;;;;7.20;5.50;;;;;;;15.68;100.00;98401.46;110535;1261;22003;-86
2023/10/31 08:42:10;;;;;;;6.40;5.70;;;;;;;15.68;100.00;98410.93;111292;1256;21998;-86
2023/10/31 08:44:49;;;;;;;8.00;5.20;;;;;;;15.67;100.00;98424.13;111381;1256;21965;-85
2023/10/31 08:47:24;;;;;;;9.00;4.30;;;;;;;15.66;100.00;98429.48;111407;1251;22996;-85
2023/10/31 08:50:02;;;;;;;6.60;4.30;;;;;;;15.67;100.00;98429.21;111371;1256;22383;-86
2023/10/31 08:52:37;;;;;;;7.60;3.70;;;;;;;15.70;100.00;98427.21;111406;1256;22364;-85
2023/10/31 08:55:14;;;;;;;8.90;4.70;;;;;;;15.71;100.00;98436.58;110903;1262;23707;-87
2023/10/31 08:57:48;;;;;;;8.00;5.30;;;;;;;15.70;100.00;98443.14;110387;1268;22035;-86
2023/10/31 09:00:29;;;;;;;13.00;5.20;;;;;;;15.71;100.00;98450.60;110059;1269;21994;-87
2023/10/31 09:03:15;;;;;;;9.20;4.80;;;;;;;15.71;100.00;98459.18;110257;1269;22070;-86
2023/10/31 09:06:02;;;;;;;11.30;5.80;;;;;;;15.72;100.00;98462.64;110032;1269;23714;-79
2023/10/31 09:08:45;;;;;;;10.30;5.00;;;;;;;15.73;100.00;98464.83;109607;1267;21986;-79
2023/10/31 09:11:33;;;;;;;7.10;4.60;;;;;;;15.74;100.00;98468.08;109652;1267;23739;-80
2023/10/31 09:14:38;;;;;;;7.30;5.40;;;;;;;15.76;100.00;98477.55;110122;1265;23755;-80
2023/10/31 09:17:13;;;;;;;8.60;4.80;;;;;;;15.76;100.00;98482.27;110260;1266;24430;-81
2023/10/31 09:19:49;;;;;;;6.40;4.40;;;;;;;15.76;100.00;98484.31;110479;1266;21989;-78
2023/10/31 09:22:21;;;;;;;9.60;5.60;;;;;;;15.77;100.00;98481.43;110277;1263;22040;-80
2023/10/31 09:24:54;;;;;;;6.70;4.20;;;;;;;15.77;100.00;98478.66;110361;1266;21989;-80
2023/10/31 09:27:24;;;;;;;10.80;4.30;;;;;;;15.74;100.00;98488.03;110419;1267;22024;-79
2023/10/31 09:29:56;;;;;;;6.60;4.00;;;;;;;15.74;100.00;98497.04;110313;1267;22291;-80
2023/10/31 09:32:29;;;;;;;5.00;4.50;;;;;;;15.72;100.00;98501.16;110363;1266;23727;-81
2023/10/31 09:35:08;;;;;;;6.50;4.60;;;;;;;15.71;100.00;98507.75;110644;1257;23000;-81
2023/10/31 09:37:39;;;;;;;7.20;5.10;;;;;;;15.71;100.00;98517.42;110956;1261;22029;-80
2023/10/31 09:40:16;;;;;;;9.10;5.40;;;;;;;15.69;100.00;98529.83;110849;1261;22727;-82
2023/10/31 09:42:58;;;;;;;7.50;5.70;;;;;;;15.73;100.00;98539.73;110603;1266;23778;-81
2023/10/31 09:45:42;;;;;;;8.10;4.30;;;;;;;15.76;100.00;98545.18;109996;1267;23775;-80
2023/10/31 09:48:18;;;;;;;8.50;4.80;;;;;;;15.78;100.00;98546.30;109857;1272;23025;-80
2023/10/31 09:50:59;;;;;;;5.00;4.20;;;;;;;15.81;100.00;98552.52;109234;1276;21982;-79
2023/10/31 09:53:34;;;;;;;5.50;4.50;;;;;;;15.85;100.00;98555.14;109290;1276;23086;-81
2023/10/31 09:56:14;;;;;;;7.00;4.60;;;;;;;15.91;100.00;98555.13;109271;1277;22009;-80
2023/10/31 09:58:59;;;;;;;6.80;4.00;;;;;;;16.00;100.00;98556.83;109160;1278;22997;-81
2023/10/31 10:01:40;;;;;;;5.10;4.40;;;;;;;16.07;100.00;98572.54;109470;1269;21986;-80
2023/10/31 10:04:18;;;;;;;6.40;5.10;;;;;;;16.07;100.00;98586.23;109348;1275;22090;-79
2023/10/31 10:07:02;;;;;;;6.30;4.80;;;;;;;16.03;100.00;98585.28;109598;1269;22018;-80
2023/10/31 10:09:40;;;;;;;8.80;4.70;;;;;;;16.01;100.00;98584.08;110075;1263;22197;-81
2023/10/31 10:12:22;;;;;;;4.60;3.40;;;;;;;15.99;100.00;98578.27;110603;1264;21980;-82
2023/10/31 10:14:53;;;;;;;4.20;3.60;;;;;;;15.97;100.00;98568.06;109670;1269;23605;-81
2023/10/31 10:17:39;;;;;;;5.90;3.40;;;;;;;15.98;100.00;98566.23;109917;1269;21976;-80
2023/10/31 10:20:17;;;;;;;4.00;2.90;;;;;;;16.00;100.00;98568.91;110014;1269;23611;-81
2023/10/31 10:22:56;;;;;;;3.40;2.80;;;;;;;16.06;100.00;98571.73;110248;1263;23634;-81
2023/10/31 10:25:32;;;;;;;3.90;3.50;;;;;;;16.15;100.00;98571.58;109899;1268;23071;-80
2023/10/31 10:28:24;;;;;;;5.30;3.80;;;;;;;16.31;100.00;98575.64;110168;1263;21995;-81
2023/10/31 10:31:06;;;;;;;6.40;5.10;;;;;;;16.36;100.00;98581.69;109392;1274;22154;-80
2023/10/31 10:33:45;;;;;;;8.80;6.70;;;;;;;16.40;100.00;98584.27;109508;1272;22052;-81
2023/10/31 10:36:25;;;;;;;5.30;2.80;;;;;;;16.38;100.00;98585.88;109749;1272;24381;-80
2023/10/31 10:39:11;;;;;;;8.00;3.00;;;;;;;16.31;100.00;98596.70;109614;1272;22345;-80
2023/10/31 10:42:05;;;;;;;9.00;3.90;;;;;;;16.25;100.00;98598.30;109584;1272;22074;-82
2023/10/31 10:44:38;;;;;;;5.60;3.00;;;;;;;16.23;100.00;98602.52;109636;1271;21981;-81
2023/10/31 10:47:15;;;;;;;5.00;3.50;;;;;;;16.21;100.00;98610.88;109681;1271;22978;-81
2023/10/31 10:50:06;;;;;;;3.90;3.20;;;;;;;16.17;100.00;98619.16;109991;1263;21996;-81
2023/10/31 10:52:53;;;;;;;2.80;2.40;;;;;;;16.12;100.00;98633.48;111159;1257;22005;-82
2023/10/31 10:55:36;;;;;;;5.20;3.30;;;;;;;16.05;100.00;98639.70;111330;1257;22966;-81
2023/10/31 10:58:36;;;;;;;;;;;;;;;16.01;100.00;98640.38;110793;1262;22459;-83
2023/10/31 11:01:15;;;;;;;5.30;3.90;;;;;;;15.92;100.00;98635.04;110470;1265;21982;-82
2023/10/31 11:04:03;;;;;;;6.30;4.60;;;;;;;15.89;100.00;98623.34;110402;1267;23026;-80
2023/10/31 11:06:43;;;;;;;4.90;3.50;;;;;;;16.13;100.00;98644.56;110119;1267;21971;-82
2023/10/31 11:09:23;;;;;;;8.00;3.10;;;;;;;16.27;100.00;98653.38;109653;1272;22545;-82
2023/10/31 11:12:14;;;;;;;3.00;2.20;;;;;;;16.43;100.00;98657.45;109597;1272;22200;-82
2023/10/31 11:14:55;;;;;;;5.30;2.50;;;;;;;16.58;100.00;98665.16;109524;1273;21998;-82
2023/10/31 11:17:44;;;;;;;5.50;4.20;;;;;;;16.70;100.00;98681.70;109495;1274;21990;-81
2023/10/31 11:20:18;;;;;;;3.60;2.60;;;;;;;16.75;100.00;98689.70;109682;1271;22104;-82
2023/10/31 11:23:04;;;;;;;3.60;2.10;;;;;;;16.77;100.00;98688.29;109536;1271;23008;-82
2023/10/31 11:25:43;;;;;;;3.30;2.50;;;;;;;16.77;100.00;98678.05;109747;1270;23693;-82
2023/10/31 11:28:20;;;;;;;5.90;2.70;;;;;;;16.82;100.00;98673.08;109876;1259;23040;-82
2023/10/31 11:30:58;;;;;;;3.00;2.20;;;;;;;16.89;100.00;98673.84;110060;1268;22004;-81
2023/10/31 11:33:30;;;;;;;6.00;2.10;;;;;;;16.92;100.00;98668.15;109445;1274;22008;-80
2023/10/31 11:36:06;;;;;;;4.20;2.20;;;;;;;16.93;100.00;98662.05;109947;1267;21994;-79
2023/10/31 11:38:42;;;;;;;4.40;2.10;;;;;;;16.93;100.00;98661.58;109857;1272;22056;-80
2023/10/31 11:41:17;;;;;;;2.80;1.50;;;;;;;16.92;100.00;98655.84;109683;1266;21994;-81
2023/10/31 11:43:56;;;;;;;5.10;1.90;;;;;;;16.79;100.00;98634.17;109988;1271;23197;-81
2023/10/31 11:46:31;;;;;;;5.50;2.60;;;;;;;16.78;100.00;98637.20;109686;1268;23719;-79
2023/10/31 11:49:08;;;;;;;2.70;2.10;;;;;;;16.70;100.00;98634.08;110344;1268;21976;-80
2023/10/31 11:51:50;;;;;;;5.50;2.80;;;;;;;16.61;100.00;98635.29;110572;1263;21992;-82
2023/10/31 11:54:28;;;;;;;3.40;2.30;;;;;;;16.50;100.00;98640.08;110841;1263;22451;-80
2023/10/31 11:57:13;;;;;;;3.80;1.90;;;;;;;16.44;100.00;98641.38;110923;1257;22365;-80
2023/10/31 11:59:56;;;;;;;2.80;2.00;;;;;;;16.41;100.00;98644.11;110756;1261;23702;-80
2023/10/31 12:02:58;;;;;;;6.80;3.30;;;;;;;16.48;100.00;98660.87;110844;1262;21977;-80
2023/10/31 12:05:39;;;;;;;4.90;3.20;;;;;;;16.53;100.00;98670.73;110726;1262;22731;-80
2023/10/31 12:08:37;;;;;;;5.60;4.00;;;;;;;16.57;100.00;98670.35;110247;1268;22450;-80
2023/10/31 12:11:27;;;;;;;5.80;3.40;;;;;;;16.57;100.00;98670.39;109835;1268;21982;-81
2023/10/31 12:14:06;;;;;;;5.20;2.50;;;;;;;16.58;100.00;98675.37;107744;1268;3322270;-80
2023/10/31 12:16:42;;;;;;;3.40;2.60;;;;;;;16.58;100.00;98680.00;109828;1265;21996;-81
2023/10/31 12:19:23;;;;;;;3.20;2.00;;;;;;;16.59;100.00;98683.39;109674;1267;23745;-80
2023/10/31 12:22:14;;;;;;;3.00;2.40;;;;;;;16.58;100.00;98681.67;110254;1267;22548;-80
2023/10/31 12:24:43;;;;;;;6.30;2.10;;;;;;;16.61;100.00;98686.55;110220;1266;23640;-82
2023/10/31 12:27:15;;;;;;;5.40;2.90;;;;;;;16.63;100.00;98692.38;110418;1261;21995;-81
2023/10/31 12:29:44;;;;;;;5.40;1.90;;;;;;;16.64;100.00;98696.16;110748;1260;22026;-79